Weather observations for the past three days for
Joliet Regional Airport
Imperial (Metric)
Date Time (cdt) Wind (mph) Vis. (mi.) Weather Sky Cond. Temperature (ºF) Relative Humidity Wind Chill (°F) Heat Index (°F) Pressure Precipitation (in)
Air Dwpt 6 hour altimeter (in) sea level (mb) 1 hr 3 hr 6 hr
Max. Min.
03 01:35 Calm 7.00 Fair CLR 74.7 74.7 100% 29.94 0.0
03 01:15 Calm 7.00 Fair CLR 75.6 75.6 100% 74 29.94 0.0
03 00:55 Calm 10.00 Fair CLR 76.1 76.1 89.2 75.6 100% 75 29.94 0.0
03 00:35 Calm 10.00 Fair CLR 76.1 75.9 99% 75 29.94 0.0
03 00:15 Calm 10.00 Fair CLR 76.1 75.6 98% 75 29.94 0.0
02 23:55 Calm 10.00 Fair CLR 77 76.1 97% 78 29.94 0.0
02 23:35 Calm 10.00 Fair CLR 77.7 76.1 95% 80 29.94 0.0
02 23:15 Calm 10.00 Fair CLR 80.6 76.5 87% 87 29.94 0.0
02 22:55 SW 3 10.00 Fair CLR 82.6 76.1 81% 90 29.93 0.0
02 22:35 SW 5 10.00 Fair CLR 81.1 76.1 85% 88 29.93 0.0
02 22:15 SW 3 10.00 Fair CLR 81.1 76.1 85% 88 29.93 0.0
02 21:55 SW 3 10.00 Fair CLR 83.1 76.1 79% 91 29.93 0.0
02 21:35 SW 3 10.00 Fair CLR 82.8 76.1 80% 91 29.94 0.0
02 21:15 Calm 10.00 Fair CLR 84.6 76.1 76% 94 29.93 0.0
02 20:55 S 3 10.00 Fair CLR 83.7 75.6 77% 92 29.92 0.0
02 20:35 SW 5 10.00 Fair CLR 85.8 75.4 71% 95 29.92 0.0
02 20:15 SW 3 10.00 Fair CLR 86.7 75.6 69% 97 29.91 0.0
02 19:55 SW 3 10.00 Fair CLR 86.5 76.1 71% 97 29.91 0.0
02 19:35 SW 3 10.00 Partly Cloudy SCT110 88 76.1 68% 99 29.91 0.0
02 19:15 SW 3 10.00 Mostly Cloudy BKN110 88.3 76.1 67% 100 29.91 0.0
02 18:55 SW 3 10.00 Partly Cloudy SCT110 89.6 76.1 96.1 89.6 65% 101 29.91 0.0
02 18:35 SW 6 10.00 Fair CLR 90.3 76.1 63% 102 29.91 0.0
02 18:15 SW 6 10.00 Partly Cloudy SCT120 91.4 75.6 60% 103 29.92 0.0
02 17:55 SW 7 10.00 Fair CLR 91.4 75.2 59% 103 29.92 0.0
02 17:35 SW 6 10.00 Fair CLR 92.8 75.4 57% 105 29.92 0.0
02 17:15 SW 7 10.00 Fair CLR 93.2 75.4 56% 105 29.92 0.0
02 16:55 SW 7 10.00 Partly Cloudy SCT100 94.3 75.4 54% 107 29.92 0.0
02 16:35 SW 6 10.00 Partly Cloudy SCT100 93.7 74.5 54% 105 29.93 0.0
02 16:15 SW 7 10.00 Fair CLR 94.5 73 50% 104 29.93 0.0
02 15:55 SW 5 10.00 Partly Cloudy SCT100 95.9 73.8 49% 107 29.93 0.0
02 15:35 SW 7 10.00 Partly Cloudy SCT100 95.9 74.5 50% 107 29.93 0.0
02 15:15 SW 7 10.00 Partly Cloudy SCT100 94.5 74.1 52% 105 29.94 0.0
02 14:55 SW 6 10.00 Partly Cloudy SCT100 95.7 73.8 49% 106 29.94 0.0
02 14:35 SW 7 10.00 Partly Cloudy SCT100 95.2 74.7 52% 107 29.94 0.0
02 14:15 W 8 10.00 Fair CLR 95 73 49% 105 29.95 0.0
02 13:55 SW 3 10.00 Partly Cloudy SCT100 94.1 74.1 52% 105 29.95 0.0
02 13:35 SW 8 10.00 Fair CLR 94.1 74.3 53% 105 29.96 0.0
02 13:15 SW 8 10.00 Fair CLR 93.2 74.5 55% 104 29.96 0.0
02 12:55 SW 9 10.00 Fair CLR 92.1 74.1 92.5 74.1 56% 102 29.96 0.0
02 12:35 SW 5 10.00 Fair CLR 91.8 74.3 57% 102 29.96 0.0
02 12:15 SW 3 10.00 Fair CLR 91 75.4 60% 102 29.97 0.0
02 11:55 SW 3 10.00 Fair CLR 89.1 74.7 63% 99 29.97 0.0
02 11:35 SW 6 10.00 Fair CLR 88.9 74.1 62% 98 29.98 0.0
02 11:15 W 3 10.00 Fair CLR 88.5 74.7 64% 98 29.99 0.0
02 10:55 W 6 10.00 Fair CLR 88.2 74.8 65% 98 29.99 0.0
02 10:35 NW 5 10.00 Fair CLR 87.3 74.5 66% 96 29.99 0.0
02 10:15 SW 3 10.00 Fair CLR 86 74.1 68% 94 29.97 0.0
02 09:55 SW 5 10.00 Fair CLR 85.3 74.3 70% 93 29.97 0.0
02 09:35 SW 3 10.00 Fair CLR 83.8 73.4 71% 90 29.98 0.0
02 09:15 SW 8 10.00 Fair CLR 83.5 73.8 73% 90 29.98 0.0
02 08:55 SW 3 10.00 Fair CLR 83.7 73.6 72% 90 29.98 0.0
02 08:35 S 3 10.00 Fair CLR 81.7 73.6 77% 87 29.99 0.0
02 08:15 SW 3 10.00 Fair CLR 80.2 73.6 80% 85 29.99 0.0
02 07:55 Calm 10.00 Fair CLR 78.8 73.4 84% 82 29.99 0.0
02 07:35 S 3 10.00 Partly Cloudy SCT090 77.2 73 87% 79 29.99 0.0
02 07:15 S 3 10.00 Fair CLR 75.6 72.5 90% 75 29.99 0.0
02 06:55 Calm 10.00 Partly Cloudy SCT090 73.8 73 78.3 72.5 98% 29.98 0.0
02 06:35 Calm 10.00 Mostly Cloudy BKN090 72.9 72.5 99% 29.98 0.0
02 06:15 Calm 10.00 Mostly Cloudy BKN090 72.9 71.8 96% 29.99 0.0
02 05:55 Calm 10.00 Partly Cloudy SCT085 73.6 72.7 97% 29.98 0.0
02 05:35 Calm 10.00 Mostly Cloudy BKN085 75 72.5 92% 74 29.98 0.0
02 05:15 Calm 10.00 Partly Cloudy SCT085 75.4 72.5 91% 75 29.98 0.0
02 04:55 Calm 10.00 Partly Cloudy SCT085 75.6 72.5 90% 75 29.98 0.0
02 04:35 Calm 10.00 Fair CLR 76.3 72.5 88% 77 29.97 0.0
02 04:15 S 5 10.00 Fair CLR 75.9 72.5 89% 76 29.97 0.0
02 03:55 Calm 10.00 Fair CLR 76.3 72.7 89% 77 29.97 0.0
02 03:35 Calm 10.00 Fair CLR 77 72.7 87% 78 29.97 0.0
02 03:15 S 3 10.00 Fair CLR 77 73.2 88% 78 29.97 0.0
02 02:55 Calm 10.00 Fair CLR 76.3 73.9 93% 76 29.97 0.0
02 02:35 Calm 10.00 Fair CLR 75.2 74.5 98% 73 29.96 0.0
02 02:15 Calm 10.00 Fair CLR 75.4 75 99% 73 29.96 0.0
02 01:55 Calm 10.00 Partly Cloudy SCT085 76.1 74.5 95% 76 29.97 0.0
02 01:35 Calm 10.00 Fair CLR 77.9 74.7 90% 80 29.97 0.0
02 01:15 SW 3 10.00 Fair CLR 77.2 75 93% 78 29.97 0.0
02 00:55 S 3 10.00 Partly Cloudy SCT085 77 75.4 89.6 75.7 95% 78 29.97 0.0
02 00:35 Calm 10.00 Mostly Cloudy BKN085 76.8 75.9 97% 77 29.97 0.0
02 00:15 S 3 10.00 Mostly Cloudy BKN085 76.3 76.1 99% 76 29.97 0.0
01 23:55 Calm 10.00 Partly Cloudy SCT085 76.1 75.7 99% 75 29.97 0.0
01 23:35 Calm 10.00 Fair CLR 76.5 75.9 98% 76 29.97 0.0
01 23:15 Calm 10.00 Fair CLR 77 75.7 96% 78 29.97 0.0
01 22:55 Calm 10.00 Fair CLR 77 75.7 96% 78 29.97 0.0
01 22:35 Calm 10.00 Fair CLR 79.3 75.2 87% 84 29.97 0.0
01 22:15 Calm 10.00 Fair CLR 80.6 74.7 82% 86 29.97 0.0
01 21:55 Calm 10.00 Fair CLR 81.5 74.5 79% 87 29.97 0.0
01 21:35 Calm 10.00 Fair CLR 81.7 74.7 79% 88 29.97 0.0
01 21:15 Calm 10.00 Fair CLR 82 75.4 80% 89 29.97 0.0
01 20:55 SW 3 10.00 Fair CLR 82.9 75.9 79% 91 29.97 0.0
01 20:35 SW 3 10.00 Fair CLR 83.3 75.2 77% 91 29.96 0.0
01 20:15 SW 3 10.00 Fair CLR 84.9 74.8 72% 93 29.95 0.0
01 19:55 SW 5 10.00 Fair CLR 84.4 75.4 74% 93 29.95 0.0
01 19:35 SW 3 10.00 Fair CLR 85.8 75.6 72% 95 29.94 0.0
01 19:15 SW 3 10.00 Fair CLR 88.9 75.2 64% 99 29.95 0.0
01 18:55 SW 5 10.00 Fair CLR 89.8 75.6 94.5 89.8 63% 101 29.95 0.0
01 18:35 SW 5 10.00 Fair CLR 91.2 75.6 60% 103 29.95 0.0
01 18:15 SW 6 10.00 Fair CLR 92.3 75.6 58% 104 29.95 0.0
01 17:55 SW 5 10.00 Fair CLR 92.7 75 57% 104 29.95 0.0
01 17:35 SW 5 10.00 Fair CLR 92.7 74.7 56% 104 29.95 0.0
01 17:15 SW 5 10.00 Fair CLR 93.2 75.2 56% 105 29.95 0.0
01 16:55 SW 5 10.00 Partly Cloudy SCT095 93.4 75.6 56% 106 29.95 0.0
01 16:35 SW 5 10.00 Mostly Cloudy BKN095 93.6 76.1 57% 107 29.95 0.0
01 16:15 SW 7 10.00 Partly Cloudy SCT095 93.7 75.4 55% 106 29.95 0.0
01 15:55 SW 5 10.00 Mostly Cloudy BKN095 93.7 76.6 58% 108 29.95 0.0
01 15:35 SW 6 10.00 Partly Cloudy SCT095 94.1 76.8 57% 108 29.96 0.0
01 15:15 W 7 10.00 Fair CLR 93.9 77.2 58% 109 29.96 0.0
01 14:55 SW 8 10.00 Fair CLR 93.9 77.2 58% 109 29.96 0.0
01 14:35 SW 6 10.00 Fair CLR 93.6 78.4 62% 110 29.97 0.0
01 14:15 Calm 10.00 Fair CLR 93 77.7 61% 108 29.97 0.0
01 13:55 SW 8 10.00 Fair CLR 92.5 77.7 62% 108 29.97 0.0
01 13:35 SW 6 10.00 Fair CLR 91.9 78.1 64% 107 29.98 0.0
01 13:15 SW 6 10.00 Fair CLR 91.6 77.5 64% 106 29.98 0.0
01 12:55 SW 7 10.00 Fair CLR 90.9 78.1 91.2 74.7 66% 106 29.98 0.0
01 12:35 SW 3 10.00 Partly Cloudy SCT120 90 77.9 68% 104 29.99 0.0
01 12:15 SW 6 10.00 Partly Cloudy SCT120 89.4 77.7 69% 103 29.99 0.0
01 11:55 S 7 10.00 Partly Cloudy SCT120 88.2 77.7 71% 101 29.99 0.0
01 11:35 SW 5 10.00 Partly Cloudy SCT120 87.8 77.9 73% 101 29.99 0.0
01 11:15 SW 5 10.00 Partly Cloudy SCT120 86.5 77 73% 98 30 0.0
01 10:55 SW 5 10.00 Fair CLR 86 76.6 74% 97 30 0.0
01 10:35 SW 7 10.00 Fair CLR 84.6 75.7 75% 94 29.99 0.0
01 10:15 SW 6 10.00 Fair CLR 84 75 74% 92 29.99 0.0
01 09:55 Calm 10.00 Partly Cloudy SCT120 83.3 75 76% 91 29.99 0.0
01 09:35 SW 3 10.00 Partly Cloudy SCT120 82.2 75.4 80% 89 29.99 0.0
01 09:15 SW 3 10.00 Fair CLR 80.8 75.2 83% 87 29.99 0.0
01 08:55 Calm 10.00 Fair CLR 79.5 76.1 89% 84 29.99 0.0
01 08:35 Calm 10.00 Fair CLR 77.9 75.6 93% 80 29.99 0.0
01 08:15 Calm 10.00 Fair CLR 76.6 75.2 95% 77 30 0.0
01 07:55 Calm 10.00 Partly Cloudy SCT120 75.4 74.5 97% 74 30 0.0
01 07:35 SW 3 10.00 Partly Cloudy SCT120 75.2 74.5 98% 73 29.99 0.0
01 07:15 Calm 10.00 Fair CLR 75.2 74.3 97% 73 29.99 0.0
01 06:55 SW 3 10.00 Fair CLR 74.7 74.3 79 74.7 99% 29.98 0.0 0.02 0.12
01 06:35 Calm 7.00 Partly Cloudy SCT120 74.7 74.3 99% 29.98 0.0 0.02
01 06:15 S 3 7.00 Heavy Rain SCT050 SCT070 BKN120 74.8 74.5 99% 29.97 0.0 0.01
01 05:55 Calm 7.00 Light Rain SCT050 SCT070 BKN110 74.8 74.7 99% 29.97 0.0 0.09
01 05:35 S 3 5.00 Rain SCT035 SCT050 BKN110 75.2 74.7 98% 73 29.96 0.0 0.06
01 05:15 Calm 3.00 Light Rain SCT036 SCT050 BKN120 74.8 74.8 100% 29.97 0.0 0.02
01 04:55 Calm 7.00 Light Rain SCT060 SCT075 SCT085 75 74.7 99% 72 29.97 0.0 0.01
01 04:35 Calm 10.00 Light Rain SCT110 76.5 74.1 93% 77 29.97 0.0
01 04:15 Calm 10.00 Fair CLR 77.2 73.2 88% 79 29.96 0.0
01 03:55 Calm 10.00 Light Rain CLR 76.3 73.6 91% 76 29.96 0.0
01 03:35 Calm 10.00 Partly Cloudy SCT090 SCT120 77 73.4 89% 78 29.96 0.0
01 03:15 Calm 10.00 Partly Cloudy SCT100 SCT120 78.3 72.7 83% 81 29.96 0.0
01 02:55 SW 3 10.00 Fair CLR 78.1 72.7 84% 81 29.95 0.0
01 02:35 SW 3 10.00 Fair CLR 78.3 72.7 83% 81 29.95 0.0
01 02:15 SW 5 10.00 Fair CLR 78.4 72.7 83% 81 29.95 0.0
01 01:55 SW 6 10.00 Fair CLR 78.4 72.7 83% 81 29.95 0.0
01 01:35 SW 5 10.00 Fair CLR 78.8 72.7 82% 82 29.95 0.0
01 01:15 SW 6 10.00 Fair CLR 77.9 73.4 86% 80 29.94 0.0
01 00:55 SW 5 10.00 Fair CLR 77.9 73.6 80.4 75.2 87% 80 29.95 0.0 0.05
01 00:35 SW 3 10.00 Fair CLR 77.5 74.1 89% 79 29.95 0.0
01 00:15 SW 3 10.00 Fair CLR 76.3 75.4 97% 76 29.95 0.0
31 23:55 Calm 10.00 Fair CLR 75.4 75.4 100% 73 29.95 0.0
31 23:35 Calm 10.00 Fair CLR 75.6 75.2 99% 74 29.95 0.0
31 23:15 Calm 10.00 Fair CLR 76.8 75.9 97% 77 29.95 0.0
31 22:55 Calm 10.00 Fair CLR 78.8 75.7 90% 82 29.95 0.0
31 22:35 Calm 10.00 Fair CLR 79 75.7 90% 83 29.95 0.0
31 22:15 S 3 10.00 Fair CLR 78.4 76.5 94% 82 29.95 0.0
31 21:55 S 3 10.00 Fair CLR 77.5 77 98% 79 29.95 0.0 0.05
31 21:35 Calm 10.00 Partly Cloudy SCT120 79.9 77.5 93% 86 29.96 0.0
31 21:15 S 3 10.00 Partly Cloudy SCT120 78.6 78.3 99% 82 29.96 0.0
31 20:55 Calm 10.00 Fair CLR 79 78.3 98% 84 29.96 0.0
31 20:35 Calm 10.00 Partly Cloudy SCT120 79.3 78.8 98% 85 29.95 0.0
31 20:15 Calm 10.00 Partly Cloudy SCT120 80.1 78.6 95% 87 29.94 0.0
31 19:55 Calm 10.00 Partly Cloudy SCT120 79.9 78.1 94% 86 29.94 0.0 0.05
31 19:35 S 5 10.00 Partly Cloudy SCT120 79.7 77.4 93% 85 29.94 0.0 0.05
31 19:15 S 7 10.00 Light Rain SCT021 SCT031 SCT039 77.9 76.3 95% 80 29.94 0.0 0.05
31 18:35 W 5 10.00 Overcast OVC110 88.7 74.3 63% 98 29.96 0.0
31 18:15 SW 3 10.00 Mostly Cloudy BKN110 88.3 74.5 64% 98 29.94 0.0
31 17:55 S 3 10.00 Overcast SCT037 SCT050 OVC110 89.6 73.6 59% 98 29.93 0.0
31 17:35 SW 5 10.00 Partly Cloudy SCT110 90.5 72.7 56% 99 29.94 0.0
31 17:15 SW 7 10.00 Fair CLR 91.4 72.3 54% 99 29.92 0.0
31 16:55 SW 9 10.00 Fair CLR 91.9 72.5 53% 100 29.92 0.0
31 16:35 SW 10 10.00 Fair CLR 92.5 71.6 51% 100 29.92 0.0
31 16:15 SW 8 10.00 Fair CLR 92.8 71.2 49% 100 29.93 0.0
31 15:55 W 7 G 16 10.00 Fair CLR 93.4 71.1 48% 100 29.93 0.0
31 15:35 W 10 G 16 10.00 Partly Cloudy SCT120 93.6 70.7 47% 100 29.93 0.0
31 15:15 SW 10 10.00 Partly Cloudy SCT120 92.8 70.9 49% 100 29.92 0.0
31 14:55 SW 10 G 16 10.00 Partly Cloudy SCT120 92.5 71.8 51% 100 29.93 0.0
31 14:35 SW 12 G 16 10.00 Partly Cloudy SCT120 91.6 72 53% 99 29.93 0.0
31 14:15 S 10 G 17 10.00 Partly Cloudy SCT120 91 72.1 54% 99 29.93 0.0
31 13:55 S 12 G 16 10.00 Fair CLR 90.5 71.4 54% 97 29.94 0.0
31 13:35 SW 10 G 17 10.00 Fair CLR 89.2 70.5 54% 95 29.94 0.0
31 13:15 S 8 G 18 10.00 Fair CLR 88.2 70.7 56% 94 29.94 0.0
31 12:55 S 9 G 18 10.00 Fair CLR 86.9 70.2 86.9 72.7 58% 92 29.95 0.0 0.02
31 12:35 S 7 10.00 Fair CLR 83.8 70.9 65% 89 29.96 0.0
31 12:15 S 7 10.00 Mostly Cloudy BKN110 83.5 71.6 68% 89 29.98 0.0
31 11:55 S 7 10.00 Overcast OVC100 80.8 70.7 72% 84 29.99 0.0
31 11:35 S 6 10.00 Overcast OVC100 78.4 70 75% 81 29.99 0.0
31 11:15 SE 5 10.00 Overcast OVC100 77.2 69.8 78% 79 29.99 0.0
31 10:55 SE 5 10.00 Overcast SCT085 OVC100 76.1 69.8 81% 77 30 0.0
31 10:35 S 3 10.00 Overcast OVC100 76.1 71.1 84% 77 30 0.0
31 10:15 SE 3 10.00 Overcast OVC100 75.2 70.7 86% 75 30 0.0
31 09:55 SE 7 10.00 Light Rain SCT055 SCT080 OVC100 73.2 70 90% 30 0.0 0.02 0.02
31 09:35 SE 6 10.00 Overcast SCT045 SCT060 OVC100 73 70 90% 30 0.0 0.02
31 09:15 SE 7 3.00 Light Rain SCT045 SCT080 OVC100 73.6 68.7 85% 30 0.0 0.01
31 08:55 Calm 10.00 Overcast OVC110 74.8 67.6 78% 30 0.0
31 08:35 SE 5 10.00 Overcast OVC100 74.1 68.2 82% 30 0.0
31 08:15 Calm 10.00 Overcast OVC110 75.2 67.3 77% 76 30 0.0
31 07:55 S 3 10.00 Overcast OVC110 74.8 66 74% 29.98 0.0
31 07:35 S 6 10.00 Overcast OVC110 74.1 66 76% 29.98 0.0
31 07:15 S 5 10.00 Mostly Cloudy SCT065 SCT090 BKN110 73.8 66.2 77% 29.97 0.0
31 06:55 S 3 10.00 Partly Cloudy SCT065 SCT090 SCT120 73.4 66.6 76.6 72.9 79% 29.97 0.0
31 06:35 S 5 10.00 Partly Cloudy SCT060 SCT070 SCT085 72.9 67.1 82% 29.97 0.0
31 06:15 Calm 10.00 Light Rain SCT048 SCT060 BKN110 75 65.5 72% 76 29.97 0.0
31 05:55 SW 5 10.00 Fair CLR 75 64.9 71% 77 29.96 0.0
31 05:35 S 6 10.00 Fair CLR 74.7 64.8 71% 29.96 0.0
31 05:15 SW 5 10.00 Fair CLR 75.4 64.4 69% 77 29.96 0.0
31 04:55 S 5 10.00 Fair CLR 75.4 64.4 69% 77 29.96 0.0
31 04:35 S 5 10.00 Fair CLR 75.4 64.8 70% 77 29.96 0.0
31 04:15 S 5 10.00 Fair CLR 75.6 64.9 70% 77 29.96 0.0
31 03:55 S 6 10.00 Fair CLR 75.6 65.3 71% 77 29.96 0.0
31 03:35 S 3 10.00 Fair CLR 75.7 65.8 71% 77 29.96 0.0
31 03:15 S 5 10.00 Fair CLR 75.6 66.9 75% 77 29.96 0.0
31 02:55 S 3 10.00 Fair CLR 75.2 68.2 79% 76 29.96 0.0
31 02:35 S 3 10.00 Fair CLR 75.2 68.5 80% 76 29.96 0.0
31 02:15 S 3 10.00 Fair CLR 75.6 68.7 79% 76 29.97 0.0
31 01:55 SW 5 10.00 Fair CLR 76.3 68.7 78% 78 29.97 0.0
Date Time (cdt) Wind (mph) Vis. (mi.) Weather Sky Cond. Air Dwpt Max. Min. Relative Humidity Wind Chill (°F) Heat Index (°F) altimeter (in) sea level (mb) 1 hr 3 hr 6 hr
6 hour
Temperature (ºF) Pressure Precipitation (in)